Observation data for Brownfield on 01/13/2019      Previous  Date  Next       Current Mesonet Observations  Soil Data  Daily Summary Page  Observations in Plain Language
KBWS 131800Z 10006KT 04/M01 A3036 RMK A01 T00441010  RH  069%=      5-min Rain = 0
KBWS 131805Z 12007KT 04/M01 A3036 RMK A01 T00421010  RH  069%=      5-min Rain = 0
KBWS 131810Z 11007KT 04/M01 A3036 RMK A01 T00431010  RH  069%=      5-min Rain = 0
KBWS 131815Z 11007KT 04/M01 A3036 RMK A01 T00421012  RH  069%=      5-min Rain = 0
KBWS 131820Z 10006KT 05/M01 A3035 RMK A01 T00451010  RH  068%=      5-min Rain = 0
KBWS 131825Z 12008KT 05/M01 A3035 RMK A01 T00491010  RH  067%=      5-min Rain = 0
KBWS 131830Z 12009KT 05/M01 A3034 RMK A01 T00491011  RH  066%=      5-min Rain = 0
KBWS 131835Z 11008KT 05/M01 A3034 RMK A01 T00471013  RH  066%=      5-min Rain = 0
KBWS 131840Z 10008KT 05/M01 A3034 RMK A01 T00491012  RH  066%=      5-min Rain = 0
KBWS 131845Z 11007KT 05/M01 A3033 RMK A01 T00501012  RH  065%=      5-min Rain = 0
KBWS 131850Z 11008KT 05/M01 A3033 RMK A01 T00501013  RH  064%=      5-min Rain = 0
KBWS 131855Z 11008KT 05/M01 A3033 RMK A01 T00511012  RH  064%=      5-min Rain = 0
KBWS 131900Z 10007KT 05/M01 A3032 RMK A01 T00501013  RH  064%=      5-min Rain = 0
KBWS 131905Z 11008KT 05/M01 A3032 RMK A01 T00531012  RH  064%=      5-min Rain = 0
KBWS 131910Z 12008KT 05/M01 A3032 RMK A01 T00541011  RH  063%=      5-min Rain = 0
KBWS 131915Z 10007KT 05/M01 A3032 RMK A01 T00541013  RH  063%=      5-min Rain = 0
KBWS 131920Z 09008KT 06/M01 A3031 RMK A01 T00591013  RH  061%=      5-min Rain = 0
KBWS 131925Z 09007KT 06/M02 A3031 RMK A01 T00571015  RH  061%=      5-min Rain = 0
KBWS 131930Z 10007G12KT 06/M01 A3031 RMK A01 T00561014  RH  061%=      5-min Rain = 0
KBWS 131935Z 10008G13KT 06/M02 A3031 RMK A01 T00551015  RH  061%=      5-min Rain = 0
KBWS 131940Z 09008KT 06/M02 A303 RMK A01 T00561017  RH  060%=      5-min Rain = 0
KBWS 131945Z 11008KT 06/M01 A303 RMK A01 T00571014  RH  061%=      5-min Rain = 0
KBWS 131950Z 10007KT 06/M01 A303 RMK A01 T00601014  RH  060%=      5-min Rain = 0
KBWS 131955Z 10008KT 06/M02 A303 RMK A01 T00601015  RH  059%=      5-min Rain = 0
KBWS 132000Z 12008KT 06/M02 A303 RMK A01 T00581016  RH  060%=      5-min Rain = 0
KBWS 132005Z 12008KT 06/M02 A303 RMK A01 T00581017  RH  059%=      5-min Rain = 0
KBWS 132010Z 12009KT 06/M02 A303 RMK A01 T00551018  RH  060%=      5-min Rain = 0
KBWS 132015Z 12008KT 05/M02 A303 RMK A01 T00541018  RH  060%=      5-min Rain = 0
KBWS 132020Z 12008KT 06/M02 A303 RMK A01 T00551018  RH  060%=      5-min Rain = 0
KBWS 132025Z 12008KT 06/M02 A303 RMK A01 T00571016  RH  060%=      5-min Rain = 0
KBWS 132030Z 12008KT 06/M02 A303 RMK A01 T00591018  RH  058%=      5-min Rain = 0
KBWS 132035Z 11007KT 06/M02 A303 RMK A01 T00591019  RH  058%=      5-min Rain = 0
KBWS 132040Z 11006G11KT 06/M01 A3029 RMK A01 T00641014  RH  058%=      5-min Rain = 0
KBWS 132045Z 10009KT 07/M02 A3029 RMK A01 T00661015  RH  057%=      5-min Rain = 0
KBWS 132050Z 11008KT 07/M02 A3029 RMK A01 T00671015  RH  056%=      5-min Rain = 0
KBWS 132055Z 09009KT 06/M02 A3029 RMK A01 T00631019  RH  056%=      5-min Rain = 0
KBWS 132100Z 09008KT 06/M02 A3029 RMK A01 T00611018  RH  057%=      5-min Rain = 0
KBWS 132105Z 09008KT 06/M02 A3029 RMK A01 T00631017  RH  057%=      5-min Rain = 0
KBWS 132110Z 09008G13KT 06/M02 A3029 RMK A01 T00631020  RH  056%=      5-min Rain = 0
KBWS 132115Z 09009KT 06/M02 A3029 RMK A01 T00621019  RH  057%=      5-min Rain = 0
KBWS 132120Z 08007KT 06/M02 A3029 RMK A01 T00631019  RH  056%=      5-min Rain = 0
KBWS 132125Z 08008KT 07/M02 A3029 RMK A01 T00651018  RH  056%=      5-min Rain = 0
KBWS 132130Z 09009KT 07/M02 A3029 RMK A01 T00661023  RH  054%=      5-min Rain = 0
KBWS 132135Z 10009KT 07/M02 A3029 RMK A01 T00651019  RH  055%=      5-min Rain = 0
KBWS 132140Z 10008KT 07/M02 A3029 RMK A01 T00661019  RH  055%=      5-min Rain = 0
KBWS 132145Z 09008KT 07/M02 A3029 RMK A01 T00661018  RH  055%=      5-min Rain = 0
KBWS 132150Z 09008KT 06/M02 A3029 RMK A01 T00641020  RH  056%=      5-min Rain = 0
KBWS 132155Z 10008KT 06/M02 A3029 RMK A01 T00631018  RH  057%=      5-min Rain = 0
KBWS 132200Z 09009KT 06/M02 A3029 RMK A01 T00621020  RH  056%=      5-min Rain = 0
KBWS 132205Z 08008KT 06/M02 A3029 RMK A01 T00621019  RH  057%=      5-min Rain = 0
KBWS 132210Z 10008KT 06/M02 A3029 RMK A01 T00621018  RH  057%=      5-min Rain = 0
KBWS 132215Z 09008KT 06/M02 A3029 RMK A01 T00641019  RH  056%=      5-min Rain = 0
KBWS 132220Z 10009KT 07/M02 A3029 RMK A01 T00651019  RH  056%=      5-min Rain = 0
KBWS 132225Z 10009KT 07/M02 A3029 RMK A01 T00651019  RH  056%=      5-min Rain = 0
KBWS 132230Z 10009KT 06/M02 A3029 RMK A01 T00641021  RH  055%=      5-min Rain = 0
KBWS 132235Z 10008KT 06/M02 A3029 RMK A01 T00641020  RH  055%=      5-min Rain = 0
KBWS 132240Z 10009KT 06/M02 A3029 RMK A01 T00641020  RH  055%=      5-min Rain = 0
KBWS 132245Z 10009KT 06/M02 A3029 RMK A01 T00631021  RH  055%=      5-min Rain = 0
KBWS 132250Z 09008KT 06/M02 A3029 RMK A01 T00631022  RH  055%=      5-min Rain = 0
KBWS 132255Z 10009KT 06/M02 A3029 RMK A01 T00621022  RH  055%=      5-min Rain = 0
KBWS 132300Z 09009KT 06/M02 A3029 RMK A01 T00611024  RH  055%=      5-min Rain = 0
KBWS 132305Z 09010KT 06/M02 A3029 RMK A01 T00601024  RH  056%=      5-min Rain = 0
KBWS 132310Z 09009KT 06/M02 A3029 RMK A01 T00591024  RH  056%=      5-min Rain = 0
KBWS 132315Z 09009KT 06/M02 A3029 RMK A01 T00581022  RH  057%=      5-min Rain = 0
KBWS 132320Z 09009KT 06/M02 A3029 RMK A01 T00571022  RH  058%=      5-min Rain = 0
KBWS 132325Z 09009KT 06/M02 A3029 RMK A01 T00551022  RH  058%=      5-min Rain = 0
KBWS 132330Z 08009KT 05/M02 A303 RMK A01 T00541021  RH  059%=      5-min Rain = 0
KBWS 132335Z 09008KT 05/M02 A303 RMK A01 T00521022  RH  059%=      5-min Rain = 0
KBWS 132340Z 09008KT 05/M02 A303 RMK A01 T00491022  RH  061%=      5-min Rain = 0
KBWS 132345Z 10008KT 05/M02 A303 RMK A01 T00471022  RH  062%=      5-min Rain = 0
KBWS 132350Z 10009KT 04/M02 A303 RMK A01 T00441023  RH  062%=      5-min Rain = 0
KBWS 132355Z 10009KT 04/M02 A303 RMK A01 T00411023  RH  064%=      5-min Rain = 0
KBWS 140000Z 10008KT 04/M02 A303 RMK A01 T00391023  RH  065%=      5-min Rain = 0
KBWS 140005Z 10009KT 04/M02 A303 RMK A01 T00361023  RH  066%=      5-min Rain = 0
KBWS 140010Z 10007KT 03/M02 A303 RMK A01 T00341023  RH  067%=      5-min Rain = 0
KBWS 140015Z 10007KT 03/M03 A303 RMK A01 T00301025  RH  068%=      5-min Rain = 0
KBWS 140020Z 10007KT 03/M03 A303 RMK A01 T00281025  RH  069%=      5-min Rain = 0
KBWS 140025Z 10007KT 03/M03 A3031 RMK A01 T00261026  RH  070%=      5-min Rain = 0
KBWS 140030Z 10007KT 02/M03 A3031 RMK A01 T00241025  RH  071%=      5-min Rain = 0
KBWS 140035Z 10008KT 02/M03 A3031 RMK A01 T00231026  RH  071%=      5-min Rain = 0
KBWS 140040Z 10007KT 02/M03 A3032 RMK A01 T00211027  RH  072%=      5-min Rain = 0
KBWS 140045Z 10007KT 02/M03 A3032 RMK A01 T00181028  RH  073%=      5-min Rain = 0
KBWS 140050Z 10007KT 02/M03 A3032 RMK A01 T00151027  RH  074%=      5-min Rain = 0
KBWS 140055Z 11007KT 01/M03 A3032 RMK A01 T00141026  RH  076%=      5-min Rain = 0
KBWS 140100Z 11007KT 01/M03 A3032 RMK A01 T00141025  RH  076%=      5-min Rain = 0
KBWS 140105Z 10006KT 01/M03 A3032 RMK A01 T00121026  RH  077%=      5-min Rain = 0
KBWS 140110Z 09006KT 01/M03 A3032 RMK A01 T00101027  RH  077%=      5-min Rain = 0
KBWS 140115Z 09006KT 01/M03 A3033 RMK A01 T00081027  RH  078%=      5-min Rain = 0
KBWS 140120Z 09006KT 01/M03 A3033 RMK A01 T00061028  RH  079%=      5-min Rain = 0
KBWS 140125Z 09006KT 01/M03 A3033 RMK A01 T00051028  RH  079%=      5-min Rain = 0
KBWS 140130Z 09007KT 00/M03 A3033 RMK A01 T00041029  RH  080%=      5-min Rain = 0
KBWS 140135Z 09007KT 00/M03 A3033 RMK A01 T00031029  RH  080%=      5-min Rain = 0
KBWS 140140Z 10007KT 00/03 A3034 RMK A01 T00000-28  RH  082%=      5-min Rain = 0
KBWS 140145Z 11006KT M00/M03 A3034 RMK A01 T10011028  RH  083%=      5-min Rain = 0
KBWS 140150Z 11006KT M00/M03 A3034 RMK A01 T10021029  RH  083%=      5-min Rain = 0
KBWS 140155Z 11006KT M00/M03 A3035 RMK A01 T10031030  RH  083%=      5-min Rain = 0
KBWS 140200Z 13007KT M01/M03 A3035 RMK A01 T10051030  RH  084%=      5-min Rain = 0
KBWS 140205Z 12008KT M01/M03 A3035 RMK A01 T10061030  RH  085%=      5-min Rain = 0
KBWS 140210Z 11007KT M01/M03 A3035 RMK A01 T10051030  RH  085%=      5-min Rain = 0
KBWS 140215Z 11006KT M01/M03 A3035 RMK A01 T10051029  RH  084%=      5-min Rain = 0
KBWS 140220Z 11006KT M01/M03 A3035 RMK A01 T10051030  RH  084%=      5-min Rain = 0
KBWS 140225Z 12006KT M01/M03 A3035 RMK A01 T10051030  RH  085%=      5-min Rain = 0
KBWS 140230Z 12008KT M01/M03 A3035 RMK A01 T10061029  RH  085%=      5-min Rain = 0
KBWS 140235Z 10008KT M01/M03 A3035 RMK A01 T10061029  RH  086%=      5-min Rain = 0
KBWS 140240Z 11009KT M01/M03 A3036 RMK A01 T10071028  RH  086%=      5-min Rain = 0
KBWS 140245Z 11009KT M01/M03 A3036 RMK A01 T10071028  RH  087%=      5-min Rain = 0
KBWS 140250Z 11010KT M01/M03 A3036 RMK A01 T10081028  RH  087%=      5-min Rain = 0
KBWS 140255Z 11009KT M01/M03 A3036 RMK A01 T10071028  RH  087%=      5-min Rain = 0
KBWS 140300Z 10008KT M01/M03 A3037 RMK A01 T10081029  RH  087%=      5-min Rain = 0
KBWS 140305Z 10008KT M01/M03 A3037 RMK A01 T10081029  RH  087%=      5-min Rain = 0
KBWS 140310Z 11008KT M01/M03 A3037 RMK A01 T10081028  RH  087%=      5-min Rain = 0
KBWS 140315Z 11009KT M01/M03 A3036 RMK A01 T10091028  RH  088%=      5-min Rain = 0
KBWS 140320Z 09008KT M01/M03 A3037 RMK A01 T10101029  RH  088%=      5-min Rain = 0
KBWS 140325Z 08008KT M01/M03 A3037 RMK A01 T10101029  RH  088%=      5-min Rain = 0
KBWS 140330Z 09007KT M01/M03 A3037 RMK A01 T10101029  RH  088%=      5-min Rain = 0
KBWS 140335Z 12008KT M01/M03 A3037 RMK A01 T10111029  RH  089%=      5-min Rain = 0
KBWS 140340Z 12008KT M01/M03 A3036 RMK A01 T10111028  RH  089%=      5-min Rain = 0
KBWS 140345Z 10008KT M01/M03 A3037 RMK A01 T10111029  RH  089%=      5-min Rain = 0
KBWS 140350Z 09006KT M01/M03 A3037 RMK A01 T10121029  RH  089%=      5-min Rain = 0
KBWS 140355Z 11006KT M01/M03 A3037 RMK A01 T10121028  RH  090%=      5-min Rain = 0
KBWS 140400Z 12006KT M01/M03 A3037 RMK A01 T10121028  RH  090%=      5-min Rain = 0
KBWS 140405Z 13006KT M01/M03 A3037 RMK A01 T10131028  RH  090%=      5-min Rain = 0
KBWS 140410Z 09006KT M01/M03 A3038 RMK A01 T10131028  RH  091%=      5-min Rain = 0
KBWS 140415Z 10007KT M01/M03 A3037 RMK A01 T10131028  RH  090%=      5-min Rain = 0
KBWS 140420Z 09007KT M01/M03 A3037 RMK A01 T10121027  RH  090%=      5-min Rain = 0
KBWS 140425Z 11006KT M01/M03 A3038 RMK A01 T10121027  RH  090%=      5-min Rain = 0
KBWS 140430Z 09006KT M01/M03 A3038 RMK A01 T10121027  RH  090%=      5-min Rain = 0
KBWS 140435Z 11006KT M01/M03 A3038 RMK A01 T10121027  RH  091%=      5-min Rain = 0
KBWS 140440Z 10006KT M01/M03 A3038 RMK A01 T10131027  RH  091%=      5-min Rain = 0
KBWS 140445Z 11005KT M01/M03 A3038 RMK A01 T10131027  RH  091%=      5-min Rain = 0
KBWS 140450Z 11005KT M01/M03 A3038 RMK A01 T10131027  RH  091%=      5-min Rain = 0
KBWS 140455Z 11007KT M01/M03 A3038 RMK A01 T10131027  RH  091%=      5-min Rain = 0
KBWS 140500Z 09006KT M01/M03 A3038 RMK A01 T10131027  RH  091%=      5-min Rain = 0
KBWS 140505Z 08006KT M01/M03 A3038 RMK A01 T10131027  RH  091%=      5-min Rain = 0
KBWS 140510Z 10005KT M01/M03 A3038 RMK A01 T10131027  RH  092%=      5-min Rain = 0
KBWS 140515Z 10006KT M01/M03 A3038 RMK A01 T10131027  RH  092%=      5-min Rain = 0
KBWS 140520Z 11005KT M01/M03 A3039 RMK A01 T10131027  RH  092%=      5-min Rain = 0
KBWS 140525Z 11005KT M01/M03 A3039 RMK A01 T10141027  RH  092%=      5-min Rain = 0
KBWS 140530Z 11005KT M01/M03 A3038 RMK A01 T10141027  RH  092%=      5-min Rain = 0
KBWS 140535Z 10004KT M02/M03 A3039 RMK A01 T10151027  RH  092%=      5-min Rain = 0
KBWS 140540Z 11004KT M02/M03 A3039 RMK A01 T10151027  RH  092%=      5-min Rain = 0
KBWS 140545Z 10004KT M01/M03 A3038 RMK A01 T10141027  RH  092%=      5-min Rain = 0
KBWS 140550Z 09004KT M01/M03 A3039 RMK A01 T10131027  RH  092%=      5-min Rain = 0
KBWS 140555Z 11004KT M01/M03 A3038 RMK A01 T10141027  RH  092%=      5-min Rain = 0

Page generated in 0.0062 seconds.